Latest Weather Observations for Woomera

IDS60801

Issued at 10:31 pm CST Monday 29 May 2017 (issued every 30 minutes, with the page automatically refreshed every 10 minutes)

About weather observations | Map of weather stations | Latest weather observations for SA | Other Formats
Station Details ID: 016001 Name: WOOMERA AERODROME Lat: -31.16 Lon: 136.81 Height: 166.6 m
Data from the previous 72 hours. | See also: Recent months at Woomera
Date/Time
CST
Temp
°C
App
Temp
°C
Dew
Point
°C
Rel
Hum
%
Delta-T
°C
Wind Press
QNH
hPa
Press
MSL
hPa
Rain since
9am
mm
Dir  Spd
km/h
Gust
km/h
Spd
kts
Gust
kts
29/10:30pm 14.1 12.2 7.4 64 3.3 WNW 7 9 4 5 1025.9 1025.8 0.0
29/10:00pm 13.6 11.3 7.4 66 3.0 NW 9 11 5 6 1025.9 1025.8 0.0
29/09:30pm 14.2 12.3 7.5 64 3.3 WNW 7 7 4 4 1025.9 1025.8 0.0
29/09:00pm 14.5 12.6 7.5 63 3.5 WNW 7 9 4 5 1025.9 1025.8 0.0
29/08:30pm 14.7 12.8 7.5 62 3.6 W 7 7 4 4 1025.7 1025.6 0.0
29/08:00pm 14.8 12.4 7.1 60 3.8 WNW 9 9 5 5 1025.5 1025.3 0.0
29/07:30pm 15.1 13.1 7.2 59 3.9 W 7 9 4 5 1025.1 1024.9 0.0
29/07:00pm 15.9 12.4 7.1 56 4.4 W 15 20 8 11 1025.0 1024.8 0.0
29/06:30pm 16.1 12.6 7.3 56 4.4 W 15 20 8 11 1024.9 1024.7 0.0
29/06:00pm 16.2 12.7 7.2 55 4.5 W 15 19 8 10 1024.8 1024.6 0.0
29/05:30pm 16.5 12.6 6.9 53 4.8 WSW 17 20 9 11 1024.4 1024.2 0.0
29/05:00pm 16.8 13.2 6.6 51 5.1 W 15 17 8 9 1024.0 1023.8 0.0
29/04:30pm 17.2 14.0 7.0 51 5.1 WSW 13 20 7 11 1023.7 1023.5 0.0
29/04:00pm 17.4 15.3 6.6 49 5.4 SW 7 13 4 7 1023.5 1023.4 0.0
29/03:30pm 16.9 13.6 6.4 50 5.2 SW 13 19 7 10 1023.5 1023.4 0.0
29/03:00pm 17.9 14.7 6.7 48 5.6 SSW 13 19 7 10 1023.3 1023.2 0.0
29/02:30pm 17.5 14.9 6.1 47 5.6 SSW 9 17 5 9 1023.3 1023.2 0.0
29/02:00pm 18.1 14.9 6.9 48 5.6 WNW 13 22 7 12 1023.4 1023.3 0.0
29/01:30pm 17.4 15.4 7.2 51 5.1 NW 7 13 4 7 1023.8 1023.6 0.0
29/01:00pm 17.0 15.0 7.1 52 5.0 WNW 7 13 4 7 1024.2 1024.0 0.0
29/12:30pm 15.6 12.8 7.1 57 4.2 SSW 11 17 6 9 1024.7 1024.5 0.0
29/12:00pm 16.4 14.1 7.6 56 4.4 WNW 9 17 5 9 1025.2 1025.0 0.0
29/11:30am 15.0 12.3 7.5 61 3.7 SW 11 20 6 11 1025.5 1025.3 0.0
29/11:00am 15.4 12.4 7.7 60 3.9 SW 13 20 7 11 1025.6 1025.5 0.0
29/10:30am 14.7 11.0 8.0 64 3.4 SSW 17 24 9 13 1025.7 1025.6 0.0
29/10:00am 14.2 10.4 7.7 65 3.2 SW 17 20 9 11 1025.8 1025.7 0.0
29/09:30am 13.8 10.1 7.8 67 3.0 SW 17 22 9 12 1025.6 1025.5 0.0
29/09:00am 12.5 10.5 8.6 77 1.9 WSW 9 11 5 6 1025.4 1025.2 0.0
29/08:30am 10.7 9.2 8.3 85 1.2 W 6 7 3 4 1025.3 1025.1 0.0
29/08:00am 8.8 6.5 7.3 90 0.7 SW 9 11 5 6 1024.9 1024.7 0.0
29/07:30am 8.0 5.1 6.6 91 0.6 SW 11 11 6 6 1024.7 1024.5 0.0
29/07:00am 7.6 5.4 6.1 90 0.7 WSW 7 11 4 6 1024.5 1024.3 0.0
29/06:30am 8.5 6.1 6.8 89 0.8 SW 9 13 5 7 1024.2 1024.0 0.0
29/06:00am 9.0 5.5 7.3 89 0.8 SW 15 15 8 8 1023.9 1023.7 0.0
29/05:30am 8.7 5.5 7.0 89 0.8 WSW 13 15 7 8 1023.7 1023.5 0.0
29/05:00am 9.9 6.5 7.7 86 1.1 SW 15 17 8 9 1023.4 1023.3 0.0
29/04:30am 9.6 6.6 7.7 88 0.9 WSW 13 17 7 9 1023.4 1023.3 0.0
29/04:00am 9.2 6.2 7.6 90 0.8 WSW 13 19 7 10 1023.4 1023.3 0.0
29/03:30am 8.5 6.5 7.1 91 0.7 W 7 9 4 5 1023.3 1023.2 0.0
29/03:00am 8.7 6.7 7.0 89 0.8 SW 7 9 4 5 1023.3 1023.2 0.0
29/02:30am 9.0 6.2 7.1 88 0.9 SSW 11 13 6 7 1023.2 1023.1 0.0
29/02:00am 9.1 6.0 7.1 87 0.9 SSW 13 15 7 8 1023.3 1023.2 0.0
29/01:30am 9.3 6.4 6.6 83 1.3 SW 11 11 6 6 1023.3 1023.2 0.0
29/01:00am 9.6 7.2 7.0 84 1.2 SW 9 13 5 7 1023.3 1023.2 0.0
29/12:30am 9.8 7.4 6.9 82 1.4 SSW 9 13 5 7 1023.4 1023.3 0.0
29/12:00am 9.9 6.7 6.8 81 1.5 SSW 13 15 7 8 1023.4 1023.3 0.0
 
Date/Time
CST
Temp
°C
App
Temp
°C
Dew
Point
°C
Rel
Hum
%
Delta-T
°C
Wind Press
QNH
hPa
Press
MSL
hPa
Rain since
9am
mm
Dir  Spd
km/h
Gust
km/h
Spd
kts
Gust
kts
28/11:30pm 10.3 7.5 6.8 79 1.7 SSW 11 13 6 7 1023.4 1023.3 0.0
28/11:00pm 11.2 8.8 6.9 75 2.1 SW 9 11 5 6 1023.2 1023.1 0.0
28/10:30pm 12.0 9.2 6.9 71 2.4 SW 11 13 6 7 1023.0 1022.9 0.0
28/10:00pm 12.8 9.3 7.0 68 2.8 SW 15 20 8 11 1022.9 1022.8 0.0
28/09:30pm 13.8 9.9 6.9 63 3.4 SW 17 24 9 13 1022.7 1022.6 0.0
28/09:00pm 14.9 10.9 6.5 57 4.1 SW 17 20 9 11 1022.4 1022.3 0.0
28/08:30pm 14.6 11.2 5.9 56 4.2 SW 13 17 7 9 1022.2 1022.1 0.0
28/08:00pm 15.6 11.4 5.8 52 4.7 SW 17 20 9 11 1021.9 1021.8 0.0
28/07:30pm 15.9 11.7 5.8 51 4.9 WSW 17 24 9 13 1021.6 1021.5 0.0
28/07:00pm 16.1 11.3 5.7 50 5.0 SW 20 24 11 13 1021.2 1021.1 0.0
28/06:30pm 16.3 11.6 5.9 50 5.1 WSW 20 28 11 15 1021.0 1020.9 0.0
28/06:00pm 16.3 12.0 5.3 48 5.3 SW 17 22 9 12 1020.7 1020.6 0.0
28/05:30pm 16.3 11.4 5.0 47 5.4 WSW 20 26 11 14 1020.4 1020.2 0.0
28/05:00pm 16.5 11.6 5.2 47 5.4 WSW 20 30 11 16 1020.0 1019.8 0.0
28/04:30pm 16.8 11.6 5.4 47 5.5 WSW 22 30 12 16 1019.8 1019.6 0.0
28/04:00pm 17.3 11.7 5.3 45 5.8 WSW 24 32 13 17 1019.7 1019.5 0.0
28/03:30pm 16.7 11.0 5.0 46 5.6 WSW 24 30 13 16 1019.7 1019.5 0.0
28/03:00pm 17.0 11.2 4.3 43 6.0 SW 24 37 13 20 1019.6 1019.4 0.0
28/02:30pm 17.6 11.9 4.9 43 6.1 SW 24 35 13 19 1019.6 1019.4 0.0
28/02:00pm 17.1 11.4 4.8 44 5.9 SW 24 35 13 19 1019.6 1019.4 0.0
28/01:30pm 17.4 10.4 4.0 41 6.3 SW 30 39 16 21 1019.6 1019.4 0.0
28/01:00pm 17.3 10.7 4.3 42 6.2 SW 28 44 15 24 1019.7 1019.5 0.0
28/12:30pm 16.8 10.3 4.8 45 5.7 WSW 28 39 15 21 1020.0 1019.8 0.0
28/12:00pm 16.2 9.4 4.9 47 5.4 SW 30 41 16 22 1020.4 1020.2 0.0
28/11:40am 16.6 9.7 4.6 45 5.7 WSW 30 48 16 26 1020.7 1020.6 0.0
28/11:30am 16.2 8.8 3.9 44 5.7 WSW 32 41 17 22 1020.7 1020.6 0.0
28/11:00am 15.3 9.0 5.8 53 4.6 WSW 28 35 15 19 1021.0 1020.9 0.0
28/10:30am 15.0 8.8 6.0 55 4.3 SW 28 37 15 20 1021.1 1021.0 0.0
28/10:00am 14.3 9.0 6.6 60 3.8 WSW 24 33 13 18 1021.1 1021.0 0.0
28/09:30am 13.1 8.4 9.2 77 2.0 WSW 24 32 13 17 1020.8 1020.7 0.0
28/09:00am 11.8 7.6 9.7 87 1.1 WSW 22 28 12 15 1020.5 1020.4 0.0
28/08:30am 10.3 7.3 9.4 94 0.5 W 15 20 8 11 1020.2 1020.0 0.0
28/08:00am 8.5 6.4 8.1 97 0.2 WNW 9 9 5 5 1019.8 1019.6 0.0
28/07:30am 8.1 4.8 8.0 99 0.0 W 15 17 8 9 1019.5 1019.3 0.0
28/07:00am 7.9 4.9 7.8 99 0.0 WNW 13 15 7 8 1019.2 1019.0 0.0
28/06:30am 8.2 5.7 8.1 99 0.0 W 11 13 6 7 1018.9 1018.7 0.0
28/06:00am 8.7 6.2 8.4 98 0.1 W 11 13 6 7 1018.8 1018.6 0.0
28/05:30am 8.6 6.5 8.2 97 0.2 W 9 11 5 6 1018.4 1018.2 0.0
28/05:00am 8.9 6.4 8.3 96 0.3 W 11 13 6 7 1018.3 1018.1 0.0
28/04:30am 9.1 6.6 8.3 95 0.4 W 11 13 6 7 1018.3 1018.1 0.0
28/04:00am 9.1 6.6 8.3 95 0.4 W 11 13 6 7 1018.2 1018.0 0.0
28/03:30am 9.5 6.7 8.4 93 0.5 W 13 15 7 8 1018.1 1017.9 0.0
28/03:00am 10.2 7.5 8.8 91 0.7 WSW 13 17 7 9 1017.9 1017.7 0.0
28/02:30am 10.5 7.4 8.8 89 0.8 WSW 15 17 8 9 1018.1 1017.9 0.0
28/02:00am 10.6 7.8 8.7 88 0.9 SW 13 15 7 8 1018.2 1018.0 0.0
28/01:30am 11.4 8.3 9.0 85 1.2 WSW 15 17 8 9 1018.1 1017.9 0.0
28/01:00am 12.2 8.8 9.2 82 1.5 SW 17 19 9 10 1018.2 1018.0 0.0
28/12:30am 12.8 9.1 9.3 79 1.8 WSW 19 20 10 11 1018.3 1018.1 0.0
28/12:00am 13.1 9.3 9.0 76 2.1 WSW 19 22 10 12 1018.3 1018.1 0.0
 
Date/Time
CST
Temp
°C
App
Temp
°C
Dew
Point
°C
Rel
Hum
%
Delta-T
°C
Wind Press
QNH
hPa
Press
MSL
hPa
Rain since
9am
mm
Dir  Spd
km/h
Gust
km/h
Spd
kts
Gust
kts
27/11:30pm 13.4 10.0 9.1 75 2.2 WSW 17 19 9 10 1018.1 1017.9 0.0
27/11:00pm 14.1 11.1 9.3 73 2.5 SW 15 19 8 10 1018.1 1017.9 0.0
27/10:30pm 14.9 11.2 9.5 70 2.8 SW 19 24 10 13 1018.1 1017.9 0.0
27/10:00pm 15.4 10.0 9.5 68 3.1 SW 28 35 15 19 1018.0 1017.8 0.0
27/09:30pm 16.4 10.1 9.6 64 3.6 SW 33 44 18 24 1017.9 1017.7 0.0
27/09:00pm 17.0 12.8 9.7 62 3.9 WSW 22 28 12 15 1017.5 1017.3 0.0
27/08:30pm 16.8 12.5 9.2 61 4.0 WSW 22 26 12 14 1017.0 1016.9 0.0
27/08:00pm 16.8 12.0 8.8 59 4.1 WSW 24 33 13 18 1016.9 1016.8 0.0
27/07:30pm 16.7 11.8 7.1 53 4.8 WSW 22 26 12 14 1016.6 1016.5 0.0
27/07:00pm 16.3 12.2 6.2 51 5.0 WSW 17 19 9 10 1016.1 1016.0 0.0
27/06:30pm 16.6 12.5 4.6 45 5.7 W 15 26 8 14 1015.7 1015.6 0.0
27/06:00pm 18.2 13.3 4.0 39 6.8 W 19 22 10 12 1015.2 1015.0 0.0
27/05:30pm 19.8 14.2 3.5 34 7.8 W 22 33 12 18 1015.0 1014.8 0.0
27/05:00pm 20.9 13.6 2.7 30 8.6 W 30 41 16 22 1014.8 1014.6 0.0
27/04:30pm 21.6 14.7 2.8 29 9.0 W 28 35 15 19 1014.8 1014.6 0.0
27/04:00pm 22.0 14.7 2.2 27 9.4 W 30 39 16 21 1014.7 1014.5 0.0
27/03:30pm 22.5 15.5 2.1 26 9.7 WSW 28 37 15 20 1014.5 1014.3 0.0
27/03:00pm 22.7 16.1 2.2 26 9.7 WSW 26 33 14 18 1014.3 1014.1 0.0
27/02:30pm 22.5 16.3 2.1 26 9.7 W 24 33 13 18 1014.2 1014.0 0.0
27/02:00pm 22.3 16.0 3.9 30 9.0 W 26 32 14 17 1014.5 1014.3 0.0
27/01:30pm 22.1 16.6 4.2 31 8.8 W 22 32 12 17 1014.6 1014.4 0.0
27/01:00pm 21.9 16.5 4.5 32 8.6 NW 22 43 12 23 1015.1 1014.9 0.0
27/12:30pm 21.7 15.3 5.2 34 8.2 WNW 28 35 15 19 1015.7 1015.6 0.0
27/12:00pm 21.3 14.1 4.8 34 8.1 NW 32 43 17 23 1015.9 1015.8 0.0
27/11:30am 20.6 14.7 5.8 38 7.4 NW 26 37 14 20 1016.4 1016.3 0.0
27/11:00am 19.2 13.3 5.6 41 6.7 NNW 26 33 14 18 1016.9 1016.8 0.0
27/10:30am 19.0 12.8 6.2 43 6.4 NNW 28 39 15 21 1017.1 1017.0 0.0
27/10:00am 17.4 13.3 6.3 48 5.5 NNW 17 22 9 12 1017.2 1017.1 0.0
27/09:30am 16.0 12.3 6.4 53 4.7 NW 15 19 8 10 1017.7 1017.5 0.0
27/09:00am 14.1 9.6 6.2 59 3.8 N 19 24 10 13 1017.2 1017.1 0.0
27/08:30am 12.8 8.6 5.9 63 3.3 N 17 20 9 11 1017.2 1017.1 0.0
27/08:00am 12.0 8.2 5.9 66 2.9 N 15 20 8 11 1017.2 1017.1 0.0
27/07:30am 11.3 7.1 5.6 68 2.7 N 17 24 9 13 1017.1 1017.0 0.0
27/07:00am 11.6 7.0 5.7 67 2.8 N 19 24 10 13 1016.8 1016.7 0.0
27/06:30am 11.1 6.3 5.4 68 2.6 N 20 24 11 13 1016.6 1016.5 0.0
27/06:00am 10.0 5.8 5.6 74 2.0 NNE 17 20 9 11 1016.5 1016.4 0.0
27/05:30am 9.4 5.8 5.2 75 1.9 NNE 13 15 7 8 1016.4 1016.3 0.0
27/05:00am 10.7 6.5 5.5 70 2.4 NNE 17 20 9 11 1016.5 1016.4 0.0
27/04:30am 11.3 6.7 5.6 68 2.7 NNE 19 22 10 12 1016.4 1016.3 0.0
27/04:00am 10.3 6.5 5.7 73 2.1 NNE 15 20 8 11 1016.6 1016.5 0.0
27/03:30am 10.3 6.1 5.5 72 2.2 NE 17 19 9 10 1016.9 1016.8 0.0
27/03:00am 10.1 6.2 5.3 72 2.2 NE 15 15 8 8 1016.8 1016.7 0.0
27/02:30am 11.0 7.1 5.3 68 2.6 NNE 15 17 8 9 1017.0 1016.9 0.0
27/02:00am 10.8 7.0 5.6 70 2.4 NE 15 15 8 8 1017.1 1017.0 0.0
27/01:30am 11.5 7.6 5.4 66 2.8 NNE 15 19 8 10 1017.1 1017.0 0.0
27/01:00am 12.1 7.5 5.5 64 3.1 NNE 19 20 10 11 1017.4 1017.2 0.0
27/12:30am 12.9 8.0 5.3 60 3.6 N 20 26 11 14 1017.8 1017.6 0.0
27/12:00am 14.0 9.4 5.6 57 4.0 N 19 20 10 11 1018.0 1017.8 0.0
 
Date/Time
CST
Temp
°C
App
Temp
°C
Dew
Point
°C
Rel
Hum
%
Delta-T
°C
Wind Press
QNH
hPa
Press
MSL
hPa
Rain since
9am
mm
Dir  Spd
km/h
Gust
km/h
Spd
kts
Gust
kts
26/11:30pm 13.7 9.1 5.6 58 3.8 N 19 20 10 11 1018.3 1018.1 0.0
26/11:00pm 14.0 9.8 5.6 57 4.0 N 17 20 9 11 1018.4 1018.2 0.0

Other Formats:

Comma delimited format used in spreadsheet applications
http://www.bom.gov.au/fwo/IDS60801/IDS60801.94659.axf

JavaScript Object Notation format (JSON) in row-major order
http://www.bom.gov.au/fwo/IDS60801/IDS60801.94659.json